Time;durP1;ratioP1;P1;durP2;ratioP2;P2;SDS_P1;SDS_P2;PMS_P1;PMS_P2;Temp;Humidity;BMP_temperature;BMP_pressure;BME280_temperature;BME280_humidity;BME280_pressure;Samples;Min_cycle;Max_cycle;Signal;HPM_P1;HPM_P2
2021/06/24 00:00:38;;;;;;;24.65;7.10;;;;;;;23.12;58.00;94253.00;5070473;28;20036;-75
2021/06/24 00:03:05;;;;;;;21.63;7.40;;;;;;;23.07;58.05;94250.66;5069027;28;20089;-75
2021/06/24 00:05:31;;;;;;;27.45;7.60;;;;;;;23.03;58.37;94248.69;5069191;28;20389;-75
2021/06/24 00:07:56;;;;;;;36.80;8.82;;;;;;;22.93;58.27;94248.63;5061572;28;20029;-75
2021/06/24 00:10:22;;;;;;;25.65;6.85;;;;;;;22.92;58.63;94261.44;5048989;28;20034;-75
2021/06/24 00:12:48;;;;;;;39.28;7.88;;;;;;;22.92;58.78;94247.84;5050291;28;20127;-75
2021/06/24 00:15:15;;;;;;;40.30;6.55;;;;;;;22.90;58.57;94252.91;5048742;28;20028;-75
2021/06/24 00:17:40;;;;;;;22.88;6.25;;;;;;;22.89;58.88;94251.31;5048992;28;20457;-75
2021/06/24 00:20:06;;;;;;;25.52;7.88;;;;;;;22.85;58.75;94250.53;5050061;28;20032;-75
2021/06/24 00:22:32;;;;;;;25.33;7.88;;;;;;;22.83;59.04;94259.06;5062012;28;20543;-75
2021/06/24 00:24:57;;;;;;;35.38;7.20;;;;;;;22.83;58.88;94266.44;5069010;28;20116;-75
2021/06/24 00:27:23;;;;;;;38.47;7.32;;;;;;;22.80;58.68;94267.22;5069563;28;20099;-74
2021/06/24 00:29:49;;;;;;;26.52;6.60;;;;;;;22.81;59.10;94271.47;5070208;28;20111;-75
2021/06/24 00:32:14;;;;;;;31.08;7.43;;;;;;;22.76;58.95;94269.91;5068573;28;20024;-75
2021/06/24 00:34:40;;;;;;;31.77;6.68;;;;;;;22.73;59.34;94270.66;5070160;28;20028;-75
2021/06/24 00:37:05;;;;;;;15.88;6.30;;;;;;;22.73;59.55;94275.31;5068636;28;20029;-74
2021/06/24 00:39:31;;;;;;;29.40;6.22;;;;;;;22.68;59.67;94262.88;5069877;28;20059;-74
2021/06/24 00:41:56;;;;;;;34.67;7.25;;;;;;;22.58;59.75;94264.38;5068917;28;20481;-74
2021/06/24 00:44:22;;;;;;;21.92;6.57;;;;;;;22.56;60.28;94269.41;5069684;28;20046;-74
2021/06/24 00:46:47;;;;;;;24.83;7.47;;;;;;;22.48;60.13;94258.91;5065788;28;20025;-74
2021/06/24 00:49:13;;;;;;;29.42;7.40;;;;;;;22.42;60.20;94269.31;5049719;28;20021;-75
2021/06/24 00:51:39;;;;;;;30.40;7.82;;;;;;;22.38;60.53;94272.00;5062775;28;20039;-75
2021/06/24 00:54:05;;;;;;;35.78;8.23;;;;;;;22.37;61.00;94267.75;5052423;28;20029;-75
2021/06/24 00:56:32;;;;;;;38.47;6.90;;;;;;;22.36;60.33;94270.84;5049643;28;20075;-75
2021/06/24 00:59:04;;;;;;;35.47;7.60;;;;;;;22.30;59.83;94272.34;5048643;28;20028;-75
2021/06/24 01:01:30;;;;;;;34.40;7.05;;;;;;;22.27;59.94;94273.09;5049725;28;20028;-75
2021/06/24 01:03:56;;;;;;;29.75;7.68;;;;;;;22.24;60.20;94277.34;5048663;28;20530;-75
2021/06/24 01:06:22;;;;;;;37.28;7.43;;;;;;;22.24;59.98;94272.69;5056586;28;20013;-75
2021/06/24 01:08:47;;;;;;;31.77;7.88;;;;;;;22.25;60.36;94284.34;5049852;28;20048;-75
2021/06/24 01:11:13;;;;;;;35.10;7.97;;;;;;;22.26;60.19;94279.69;5055281;28;20020;-75
2021/06/24 01:13:39;;;;;;;30.27;7.43;;;;;;;22.24;60.16;94283.56;5068153;28;20508;-75
2021/06/24 01:16:04;;;;;;;29.02;8.18;;;;;;;22.27;60.62;94289.38;5069865;28;20094;-75
2021/06/24 01:18:30;;;;;;;24.15;8.13;;;;;;;22.31;60.49;94276.59;5069481;28;20063;-75
2021/06/24 01:20:55;;;;;;;35.17;7.97;;;;;;;22.31;59.91;94279.31;5054493;28;20060;-75
2021/06/24 01:23:21;;;;;;;32.08;7.90;;;;;;;22.29;60.10;94279.72;5063939;28;20028;-75
2021/06/24 01:25:47;;;;;;;24.83;7.75;;;;;;;22.29;60.54;94279.72;5069696;28;20016;-75
2021/06/24 01:28:12;;;;;;;36.40;7.65;;;;;;;22.28;60.44;94282.81;5069807;28;20385;-75
2021/06/24 01:30:40;;;;;;;20.13;7.22;;;;;;;22.27;60.48;94287.47;5049857;28;20041;-75
2021/06/24 01:33:06;;;;;;;25.40;8.88;;;;;;;22.27;60.24;94278.53;5049686;28;20029;-75
2021/06/24 01:35:33;;;;;;;29.58;7.65;;;;;;;22.30;60.62;94275.06;5049607;28;20055;-75
2021/06/24 01:38:00;;;;;;;30.75;7.88;;;;;;;22.28;60.34;94277.38;5069327;28;20093;-75
2021/06/24 01:40:27;;;;;;;23.38;7.78;;;;;;;22.31;59.97;94279.31;5056231;28;20407;-75
2021/06/24 01:42:53;;;;;;;29.17;7.40;;;;;;;22.31;59.64;94282.84;5060403;28;20017;-75
2021/06/24 01:45:19;;;;;;;33.58;7.10;;;;;;;22.31;59.72;94282.03;5069128;28;20024;-76
2021/06/24 01:47:44;;;;;;;39.97;9.18;;;;;;;22.29;59.66;94277.00;5071460;28;20384;-75
2021/06/24 01:50:10;;;;;;;34.72;8.07;;;;;;;22.29;59.90;94279.72;5071717;28;20162;-75
2021/06/24 01:52:39;;;;;;;28.67;8.25;;;;;;;22.30;59.91;94275.06;5071334;28;20408;-75
2021/06/24 01:55:05;;;;;;;24.77;7.03;;;;;;;22.29;60.45;94287.06;5071515;28;20078;-75
2021/06/24 01:57:30;;;;;;;22.55;8.50;;;;;;;22.32;60.31;94278.19;5071442;28;20040;-75
2021/06/24 01:59:57;;;;;;;25.17;7.78;;;;;;;22.30;60.46;94280.50;5072467;28;20063;-76
2021/06/24 02:02:24;;;;;;;36.25;7.88;;;;;;;22.29;60.45;94278.91;5057217;28;20032;-76
2021/06/24 02:04:50;;;;;;;26.38;7.28;;;;;;;22.23;60.71;94276.56;5052206;28;20175;-76
2021/06/24 02:07:15;;;;;;;26.33;7.72;;;;;;;22.22;61.01;94272.25;5052688;28;20036;-75
2021/06/24 02:09:40;;;;;;;33.83;8.18;;;;;;;22.20;61.49;94277.28;5051178;28;20393;-75
2021/06/24 02:12:06;;;;;;;32.70;9.38;;;;;;;22.13;61.05;94274.53;5050851;28;20103;-75
2021/06/24 02:14:32;;;;;;;31.35;9.02;;;;;;;22.08;61.62;94264.00;5065948;28;20119;-75
2021/06/24 02:16:57;;;;;;;25.65;7.93;;;;;;;22.04;61.51;94271.34;5071922;28;20111;-76
2021/06/24 02:19:23;;;;;;;28.02;8.25;;;;;;;21.97;61.95;94269.38;5072634;28;20480;-75
2021/06/24 02:21:48;;;;;;;31.50;9.65;;;;;;;21.96;62.24;94250.75;5072062;28;20028;-75
2021/06/24 02:24:14;;;;;;;36.83;9.57;;;;;;;21.94;62.47;94258.47;5057670;28;20078;-75
2021/06/24 02:26:39;;;;;;;25.45;7.10;;;;;;;21.91;62.26;94253.81;5051937;28;20111;-75
2021/06/24 02:29:05;;;;;;;27.10;7.43;;;;;;;21.89;61.57;94247.97;5052786;28;20036;-76
2021/06/24 02:31:30;;;;;;;40.35;7.97;;;;;;;21.91;61.31;94249.16;5072185;28;20029;-76
2021/06/24 02:33:55;;;;;;;26.55;7.03;;;;;;;21.96;60.35;94253.44;5067712;28;20021;-75
2021/06/24 02:36:21;;;;;;;36.42;7.40;;;;;;;22.03;59.61;94251.56;5066576;28;20107;-76
2021/06/24 02:38:46;;;;;;;31.83;7.65;;;;;;;22.07;58.57;94250.84;5051970;28;20029;-75
2021/06/24 02:41:12;;;;;;;32.22;6.55;;;;;;;22.12;59.03;94240.38;5052852;28;20021;-76
2021/06/24 02:43:37;;;;;;;28.33;7.75;;;;;;;22.18;58.44;94235.38;5056624;28;20036;-76
2021/06/24 02:46:03;;;;;;;27.83;6.95;;;;;;;22.23;57.92;94240.47;5055736;28;20031;-76
2021/06/24 02:48:28;;;;;;;25.88;8.77;;;;;;;22.28;58.51;94250.22;5050359;28;20416;-76
2021/06/24 02:50:54;;;;;;;34.67;8.20;;;;;;;22.29;58.37;94249.06;5050312;28;20086;-76
2021/06/24 02:53:19;;;;;;;29.02;8.27;;;;;;;22.28;59.08;94255.66;5062810;28;20027;-76
2021/06/24 02:55:46;;;;;;;31.98;8.35;;;;;;;22.29;58.77;94247.16;5071574;28;20173;-76
2021/06/24 02:58:11;;;;;;;29.50;7.68;;;;;;;22.29;58.67;94243.63;5069915;28;20112;-76
2021/06/24 03:00:37;;;;;;;32.13;9.63;;;;;;;22.25;58.46;94251.78;5070376;28;20115;-76
2021/06/24 03:03:02;;;;;;;37.53;9.43;;;;;;;22.09;59.91;94243.09;5060389;28;20036;-76
2021/06/24 03:05:28;;;;;;;30.05;7.78;;;;;;;22.12;60.06;94248.53;5060156;28;20036;-76
2021/06/24 03:07:53;;;;;;;30.63;7.95;;;;;;;22.12;59.34;94259.38;5070183;28;20028;-76
2021/06/24 03:10:20;;;;;;;27.13;7.47;;;;;;;22.05;59.86;94259.34;5052686;28;20024;-76
2021/06/24 03:12:46;;;;;;;26.42;8.52;;;;;;;22.02;59.80;94266.31;5049902;28;20140;-76
2021/06/24 03:15:12;;;;;;;33.65;6.82;;;;;;;21.98;60.51;94272.84;5049696;28;20112;-76
2021/06/24 03:17:37;;;;;;;23.60;8.70;;;;;;;21.91;60.84;94264.66;5049768;28;20090;-76
2021/06/24 03:20:08;;;;;;;27.15;7.78;;;;;;;21.81;61.51;94261.47;5059333;28;20033;-76
2021/06/24 03:22:34;;;;;;;32.73;8.23;;;;;;;21.75;61.95;94257.53;5068152;28;20408;-76
2021/06/24 03:25:02;;;;;;;35.83;9.80;;;;;;;21.67;62.93;94249.72;5057274;28;20029;-76
2021/06/24 03:27:27;;;;;;;41.30;9.90;;;;;;;21.63;63.54;94260.53;5069455;28;20030;-76
2021/06/24 03:29:53;;;;;;;32.05;9.65;;;;;;;21.53;64.38;94270.13;5064188;28;20060;-76
2021/06/24 03:32:18;;;;;;;29.83;9.45;;;;;;;21.51;64.25;94255.38;5070794;28;20032;-76
2021/06/24 03:34:44;;;;;;;27.90;9.40;;;;;;;21.43;64.67;94258.03;5069490;28;20025;-75
2021/06/24 03:37:09;;;;;;;28.85;9.55;;;;;;;21.49;65.04;94257.69;5069313;28;20453;-75
2021/06/24 03:39:34;;;;;;;23.85;9.35;;;;;;;21.48;65.22;94264.28;5062250;28;20403;-75
2021/06/24 03:42:00;;;;;;;39.65;10.75;;;;;;;21.53;64.98;94267.41;5063526;28;20031;-75
2021/06/24 03:44:26;;;;;;;32.17;10.35;;;;;;;21.64;65.10;94268.31;5051388;28;20029;-75
2021/06/24 03:46:51;;;;;;;38.83;11.75;;;;;;;21.67;64.69;94282.28;5059700;28;20029;-75
2021/06/24 03:49:17;;;;;;;40.42;10.23;;;;;;;21.73;64.88;94288.94;5069928;28;20107;-76
2021/06/24 03:51:42;;;;;;;40.90;11.60;;;;;;;21.78;64.67;94283.94;5053494;28;20078;-75
2021/06/24 03:54:08;;;;;;;33.20;10.02;;;;;;;21.86;64.30;94284.00;5070715;28;20048;-76
2021/06/24 03:56:34;;;;;;;31.30;10.40;;;;;;;21.89;64.80;94275.88;5049264;28;20024;-76
2021/06/24 03:59:00;;;;;;;31.92;9.98;;;;;;;21.88;64.74;94274.34;5049279;28;20028;-75
2021/06/24 04:01:25;;;;;;;31.73;10.50;;;;;;;21.93;64.51;94278.63;5048425;28;20050;-76
2021/06/24 04:03:50;;;;;;;40.38;8.65;;;;;;;21.99;64.11;94285.28;5062504;28;20488;-75
2021/06/24 04:06:16;;;;;;;31.63;9.52;;;;;;;22.04;64.29;94280.28;5068814;28;20020;-75
2021/06/24 04:08:41;;;;;;;33.40;11.18;;;;;;;22.11;64.03;94268.69;5068972;28;20134;-76
2021/06/24 04:11:07;;;;;;;27.23;10.50;;;;;;;22.18;64.08;94268.75;5063308;28;20031;-76
2021/06/24 04:13:32;;;;;;;32.15;9.45;;;;;;;22.25;63.29;94265.34;5050665;28;20139;-76
2021/06/24 04:15:58;;;;;;;27.63;10.57;;;;;;;22.33;63.31;94268.91;5070302;28;20411;-75
2021/06/24 04:18:24;;;;;;;33.28;10.63;;;;;;;22.41;63.16;94279.41;5070354;28;20505;-76
2021/06/24 04:20:49;;;;;;;35.28;10.05;;;;;;;22.47;62.85;94268.97;5069978;28;22245;-76
2021/06/24 04:23:15;;;;;;;39.92;9.90;;;;;;;22.55;62.54;94273.31;5061452;28;20024;-75
2021/06/24 04:25:40;;;;;;;32.28;10.38;;;;;;;22.58;62.52;94269.03;5049618;28;20060;-75
2021/06/24 04:28:06;;;;;;;35.50;10.63;;;;;;;22.60;62.70;94272.16;5050082;28;20475;-75
2021/06/24 04:30:32;;;;;;;36.28;11.20;;;;;;;22.62;63.40;94276.03;5049957;28;20029;-75
2021/06/24 04:32:59;;;;;;;44.05;13.38;;;;;;;22.59;63.38;94274.09;5052002;28;20453;-75
2021/06/24 04:35:25;;;;;;;44.08;12.88;;;;;;;22.63;63.33;94285.75;5051923;28;20094;-75
2021/06/24 04:37:51;;;;;;;42.63;11.93;;;;;;;22.59;63.31;94276.81;5056870;28;20448;-75
2021/06/24 04:40:16;;;;;;;34.10;12.98;;;;;;;22.62;63.41;94270.59;5049953;28;20033;-75
2021/06/24 04:42:42;;;;;;;37.47;11.27;;;;;;;22.67;64.00;94271.41;5048335;28;20126;-75
2021/06/24 04:45:10;;;;;;;36.58;11.45;;;;;;;22.72;63.75;94279.22;5062375;28;20081;-75
2021/06/24 04:47:35;;;;;;;33.67;11.52;;;;;;;22.78;63.35;94278.47;5068591;28;20040;-76
2021/06/24 04:50:00;;;;;;;34.22;10.80;;;;;;;22.86;62.89;94284.72;5068350;28;20031;-76
2021/06/24 04:52:26;;;;;;;36.95;11.73;;;;;;;22.95;63.35;94284.34;5070087;28;20039;-76
2021/06/24 04:54:52;;;;;;;34.17;11.35;;;;;;;23.01;62.40;94275.47;5048666;28;20017;-75
2021/06/24 04:57:18;;;;;;;35.72;10.15;;;;;;;23.08;61.60;94263.06;5054400;28;20036;-73
2021/06/24 04:59:43;;;;;;;40.80;11.57;;;;;;;23.16;61.96;94272.81;5065020;28;20404;-73
2021/06/24 05:02:08;;;;;;;37.58;11.00;;;;;;;23.26;61.21;94263.91;5051970;28;20024;-73
2021/06/24 05:04:34;;;;;;;44.00;11.63;;;;;;;23.33;60.80;94261.22;5068544;28;20044;-73
2021/06/24 05:07:03;;;;;;;38.25;11.30;;;;;;;23.41;60.50;94267.47;5065416;28;20025;-73
2021/06/24 05:09:31;;;;;;;41.67;11.70;;;;;;;23.50;60.38;94267.84;5057989;28;20031;-74
2021/06/24 05:11:57;;;;;;;42.60;11.57;;;;;;;23.56;59.60;94257.38;5059503;28;20038;-72
2021/06/24 05:14:23;;;;;;;44.28;12.95;;;;;;;23.47;60.49;94268.66;5061271;28;20037;-75
2021/06/24 05:16:49;;;;;;;42.75;10.30;;;;;;;23.52;60.38;94264.75;5060003;28;20024;-75
2021/06/24 05:19:14;;;;;;;39.30;11.52;;;;;;;23.52;60.50;94257.38;5052993;28;20112;-75
2021/06/24 05:21:41;;;;;;;34.20;10.95;;;;;;;23.56;60.10;94270.97;5052082;28;20120;-75
2021/06/24 05:24:09;;;;;;;27.75;11.25;;;;;;;23.59;60.41;94271.00;5053210;28;20075;-74
2021/06/24 05:26:35;;;;;;;41.58;13.10;;;;;;;23.61;60.04;94281.47;5057733;28;20024;-75
2021/06/24 05:29:00;;;;;;;37.95;12.65;;;;;;;23.53;60.26;94288.88;5072770;28;20020;-74
2021/06/24 05:31:26;;;;;;;45.75;13.05;;;;;;;23.56;60.77;94288.06;5072902;28;20500;-73
2021/06/24 05:33:51;;;;;;;45.65;11.77;;;;;;;23.59;60.36;94287.31;5063980;28;20115;-75
2021/06/24 05:36:17;;;;;;;39.20;11.23;;;;;;;23.59;60.33;94289.25;5059876;28;20028;-75
2021/06/24 05:38:50;;;;;;;43.72;12.07;;;;;;;23.65;60.12;94279.56;5069631;28;20032;-74
2021/06/24 05:41:16;;;;;;;50.15;12.75;;;;;;;23.68;59.94;94281.50;5053933;28;20040;-75
2021/06/24 05:43:41;;;;;;;41.88;11.40;;;;;;;23.72;60.10;94279.56;5058297;28;20028;-75
2021/06/24 05:46:07;;;;;;;36.53;10.60;;;;;;;23.80;60.50;94283.09;5054768;28;20025;-66
2021/06/24 05:48:33;;;;;;;52.25;11.23;;;;;;;23.89;59.29;94266.38;5053006;28;20045;-69
2021/06/24 05:50:59;;;;;;;52.00;13.98;;;;;;;23.93;59.37;94270.66;5052822;28;20494;-69
2021/06/24 05:53:25;;;;;;;29.92;10.25;;;;;;;24.07;59.09;94280.78;5056784;28;21039;-69
2021/06/24 05:55:51;;;;;;;48.65;12.73;;;;;;;24.18;59.01;94267.94;5072790;28;20063;-69
2021/06/24 05:58:22;;;;;;;39.25;12.43;;;;;;;24.25;59.26;94272.59;5069866;28;20059;-69
2021/06/24 06:00:50;;;;;;;39.17;11.80;;;;;;;24.25;59.07;94278.06;5051389;28;20094;-68
2021/06/24 06:03:16;;;;;;;35.65;10.65;;;;;;;24.25;59.03;94272.59;5052311;28;20037;-68
2021/06/24 06:05:41;;;;;;;37.17;11.35;;;;;;;24.33;59.36;94278.84;5052115;28;20028;-69
2021/06/24 06:08:08;;;;;;;43.63;11.68;;;;;;;24.37;58.85;94285.81;5053873;28;20025;-70
2021/06/24 06:10:35;;;;;;;41.30;11.98;;;;;;;24.42;59.20;94276.47;5055424;28;20123;-68
2021/06/24 06:13:01;;;;;;;42.17;10.93;;;;;;;24.44;59.61;94276.84;5072111;28;20048;-69
2021/06/24 06:15:27;;;;;;;51.22;12.05;;;;;;;24.57;59.52;94280.78;5071709;28;20035;-69
2021/06/24 06:17:53;;;;;;;44.47;12.82;;;;;;;24.71;59.59;94287.34;5063637;28;20103;-69
2021/06/24 06:20:20;;;;;;;36.67;11.77;;;;;;;24.83;58.76;94290.44;5068689;28;20463;-69
2021/06/24 06:22:46;;;;;;;42.85;10.63;;;;;;;25.02;58.19;94286.47;5065391;28;20020;-69
2021/06/24 06:25:13;;;;;;;41.85;10.98;;;;;;;25.17;57.71;94276.28;5070012;28;20459;-69
2021/06/24 06:27:39;;;;;;;47.63;11.20;;;;;;;25.31;58.25;94274.72;5063769;28;20040;-72
2021/06/24 06:30:05;;;;;;;49.60;11.77;;;;;;;25.47;57.80;94279.69;5068041;28;20024;-72
2021/06/24 06:32:30;;;;;;;47.22;11.02;;;;;;;25.61;57.50;94282.34;5064940;28;20029;-72
2021/06/24 06:34:56;;;;;;;32.60;10.63;;;;;;;25.71;56.58;94286.97;5057978;28;20033;-72
2021/06/24 06:37:21;;;;;;;35.38;12.18;;;;;;;25.85;56.32;94288.03;5058105;28;20496;-72
2021/06/24 06:39:46;;;;;;;44.85;12.98;;;;;;;25.97;55.71;94282.91;5059627;28;20068;-72
2021/06/24 06:42:12;;;;;;;49.05;12.07;;;;;;;26.07;55.63;94277.75;5058992;28;20028;-72
2021/06/24 06:44:37;;;;;;;38.97;10.27;;;;;;;26.17;55.33;94269.47;5066423;28;20078;-72
2021/06/24 06:47:03;;;;;;;40.47;11.80;;;;;;;26.22;54.50;94276.47;5060339;28;20036;-72
2021/06/24 06:49:28;;;;;;;36.63;10.68;;;;;;;26.21;54.66;94274.91;5056257;28;20151;-72
2021/06/24 06:51:54;;;;;;;41.58;11.45;;;;;;;26.27;55.66;94270.56;5066015;28;20031;-72
2021/06/24 06:54:19;;;;;;;46.90;12.00;;;;;;;26.28;55.52;94271.38;5057297;28;20412;-72
2021/06/24 06:56:46;;;;;;;47.30;12.32;;;;;;;26.23;55.14;94275.28;5062238;28;20033;-71
2021/06/24 06:59:13;;;;;;;35.08;10.85;;;;;;;26.20;55.32;94274.16;5060205;28;20059;-72
2021/06/24 07:01:39;;;;;;;39.00;11.48;;;;;;;26.22;55.93;94273.75;5067304;28;20028;-72
2021/06/24 07:04:04;;;;;;;34.63;9.98;;;;;;;26.33;56.01;94265.44;5061778;28;20412;-73
2021/06/24 07:06:30;;;;;;;48.45;12.75;;;;;;;26.40;55.58;94268.13;5055702;28;20094;-72
2021/06/24 07:08:57;;;;;;;41.50;11.93;;;;;;;26.50;55.73;94274.66;5066536;28;20028;-74
2021/06/24 07:11:23;;;;;;;46.63;11.75;;;;;;;26.57;56.14;94274.59;5058900;28;20029;-71
2021/06/24 07:13:48;;;;;;;48.22;10.65;;;;;;;26.66;55.58;94279.63;5058306;28;20076;-70
2021/06/24 07:16:14;;;;;;;50.58;11.68;;;;;;;26.71;54.30;94279.19;5058847;28;20037;-72
2021/06/24 07:18:39;;;;;;;39.72;10.93;;;;;;;26.83;54.17;94281.41;5059380;28;20028;-70
2021/06/24 07:21:05;;;;;;;42.63;11.23;;;;;;;26.90;52.93;94286.78;5059668;28;20029;-69
2021/06/24 07:23:30;;;;;;;42.63;9.75;;;;;;;26.98;51.18;94288.25;5058825;28;20036;-70
2021/06/24 07:25:56;;;;;;;38.92;9.57;;;;;;;27.08;50.98;94291.28;5058647;28;20028;-70
2021/06/24 07:28:22;;;;;;;36.40;9.40;;;;;;;27.11;49.43;94290.44;5065043;28;20025;-71
2021/06/24 07:30:49;;;;;;;31.52;10.10;;;;;;;27.19;49.65;94286.44;5065446;28;20097;-71
2021/06/24 07:33:19;;;;;;;42.70;10.48;;;;;;;27.27;49.85;94285.19;5053752;28;20039;-70
2021/06/24 07:35:46;;;;;;;45.40;9.35;;;;;;;27.27;50.71;94276.22;5044961;28;20029;-72
2021/06/24 07:38:11;;;;;;;45.83;10.63;;;;;;;27.41;50.75;94274.06;5067846;28;20013;-72
2021/06/24 07:40:38;;;;;;;36.45;10.55;;;;;;;27.53;51.08;94288.41;5058443;28;20027;-71
2021/06/24 07:43:04;;;;;;;37.45;9.90;;;;;;;27.67;51.32;94293.69;5066834;28;20026;-71
2021/06/24 07:45:29;;;;;;;47.00;12.32;;;;;;;27.83;51.15;94289.56;5055588;28;20119;-72
2021/06/24 07:47:55;;;;;;;42.92;10.52;;;;;;;27.94;50.61;94293.69;5063130;28;20034;-73
2021/06/24 07:50:20;;;;;;;46.80;10.13;;;;;;;28.07;49.75;94293.13;5064985;28;20024;-71
2021/06/24 07:52:45;;;;;;;46.42;9.73;;;;;;;28.17;49.36;94290.22;5060756;28;20040;-72
2021/06/24 07:55:11;;;;;;;39.25;9.57;;;;;;;28.30;49.65;94297.88;5061947;28;20388;-71
2021/06/24 07:57:38;;;;;;;32.58;8.32;;;;;;;28.35;48.13;94292.69;5051996;28;20027;-72
2021/06/24 08:00:05;;;;;;;42.67;10.82;;;;;;;28.44;48.23;94285.91;5058923;28;20032;-72
2021/06/24 08:02:31;;;;;;;35.28;8.82;;;;;;;28.48;46.77;94290.13;5054611;28;20063;-71
2021/06/24 08:04:56;;;;;;;45.63;10.30;;;;;;;28.50;46.73;94293.25;5060687;28;20060;-71
2021/06/24 08:07:22;;;;;;;35.10;9.07;;;;;;;28.51;46.30;94280.31;5064463;28;20024;-71
2021/06/24 08:09:47;;;;;;;33.85;9.68;;;;;;;28.57;46.07;94284.88;5059170;28;20111;-72
2021/06/24 08:12:13;;;;;;;44.25;9.13;;;;;;;28.67;46.53;94279.63;5058940;28;20028;-71
2021/06/24 08:14:38;;;;;;;26.67;7.93;;;;;;;28.80;44.77;94277.81;5060902;28;20037;-73
2021/06/24 08:17:03;;;;;;;31.17;8.38;;;;;;;28.86;45.38;94281.63;5050185;28;20029;-73
2021/06/24 08:19:29;;;;;;;29.88;7.88;;;;;;;28.91;44.77;94272.91;5058543;28;20036;-74
2021/06/24 08:21:58;;;;;;;46.17;8.30;;;;;;;28.96;44.71;94279.88;5058376;28;20047;-75
2021/06/24 08:24:25;;;;;;;33.80;7.20;;;;;;;29.07;44.77;94285.94;5065944;28;20103;-75
2021/06/24 08:26:50;;;;;;;36.42;9.25;;;;;;;29.24;43.43;94291.53;5069798;28;20029;-75
2021/06/24 08:29:16;;;;;;;31.52;7.72;;;;;;;29.32;43.09;94279.97;5070334;28;20044;-75
2021/06/24 08:31:42;;;;;;;31.55;8.00;;;;;;;29.42;42.37;94293.91;5051728;28;20519;-75
2021/06/24 08:34:07;;;;;;;36.85;8.00;;;;;;;29.44;42.64;94295.03;5049941;28;20126;-75
2021/06/24 08:36:33;;;;;;;30.75;7.75;;;;;;;29.50;43.49;94300.81;5054200;28;20503;-75
2021/06/24 08:38:58;;;;;;;27.30;7.25;;;;;;;29.55;40.35;94294.78;5058825;28;20031;-75
2021/06/24 08:41:25;;;;;;;29.15;6.93;;;;;;;29.61;40.60;94295.84;5068563;28;20040;-74
2021/06/24 08:43:52;;;;;;;35.42;6.07;;;;;;;29.68;39.00;94298.44;5054170;28;20025;-75
2021/06/24 08:46:19;;;;;;;30.33;7.10;;;;;;;29.77;40.24;94293.16;5052041;28;20025;-74
2021/06/24 08:48:45;;;;;;;29.00;6.50;;;;;;;29.83;38.47;94290.69;5052552;28;20466;-76
2021/06/24 08:51:11;;;;;;;40.33;7.75;;;;;;;29.93;38.57;94294.41;5053747;28;20112;-74
2021/06/24 08:53:36;;;;;;;32.63;7.00;;;;;;;29.96;39.25;94283.34;5053881;28;20465;-75
2021/06/24 08:56:03;;;;;;;40.70;7.95;;;;;;;30.07;39.63;94272.09;5053575;28;20036;-74
2021/06/24 08:58:28;;;;;;;34.60;8.50;;;;;;;30.18;39.77;94274.56;5057649;28;20029;-74
2021/06/24 09:00:54;;;;;;;35.58;7.72;;;;;;;30.29;39.11;94274.31;5052272;28;20057;-74
2021/06/24 09:03:25;;;;;;;34.47;6.43;;;;;;;30.36;38.47;94272.19;5053415;28;20021;-76
2021/06/24 09:06:00;;;;;;;30.48;7.05;;;;;;;30.41;37.64;94276.41;5052186;28;20032;-77
2021/06/24 09:08:34;;;;;;;29.63;6.30;;;;;;;30.44;37.96;94278.28;5053446;28;20400;-73
2021/06/24 09:11:14;;;;;;;31.08;7.15;;;;;;;30.52;38.35;94287.13;5051918;28;20404;-74
2021/06/24 09:13:40;;;;;;;30.95;7.43;;;;;;;30.64;38.15;94285.66;5053331;28;20052;-73
2021/06/24 09:16:18;;;;;;;47.05;8.55;;;;;;;30.68;36.92;94281.59;5051899;28;20408;-74
2021/06/24 09:18:44;;;;;;;47.83;7.20;;;;;;;30.73;36.71;94283.06;5053287;28;20412;-75
2021/06/24 09:21:23;;;;;;;20.52;5.85;;;;;;;30.79;36.29;94273.06;5051766;28;20029;-74
2021/06/24 09:23:51;;;;;;;30.65;6.72;;;;;;;30.89;37.06;94274.78;5062937;28;20031;-75
2021/06/24 09:26:25;;;;;;;32.05;7.35;;;;;;;31.06;35.78;94285.75;5073003;28;20403;-75
2021/06/24 09:28:53;;;;;;;44.47;9.13;;;;;;;31.12;35.40;94286.75;5072947;28;20108;-75
2021/06/24 09:31:33;;;;;;;30.45;6.97;;;;;;;31.25;35.77;94279.31;5071685;28;20023;-75
2021/06/24 09:34:11;;;;;;;37.03;6.30;;;;;;;31.35;35.75;94281.00;5071689;28;20081;-75
2021/06/24 09:36:43;;;;;;;38.58;6.07;;;;;;;31.49;34.91;94281.81;5072988;28;20020;-75
2021/06/24 09:39:32;;;;;;;37.10;7.15;;;;;;;31.57;35.12;94272.91;5072860;28;20039;-75
2021/06/24 09:42:06;;;;;;;28.45;6.28;;;;;;;31.58;33.34;94274.44;5073027;28;20036;-76
2021/06/24 09:44:33;;;;;;;25.40;5.85;;;;;;;31.56;34.27;94271.34;5072722;28;20407;-75
2021/06/24 09:47:00;;;;;;;32.03;6.10;;;;;;;31.55;33.03;94274.56;5057682;28;20415;-79
2021/06/24 09:49:34;;;;;;;24.25;5.00;;;;;;;31.52;31.88;94269.91;5051469;28;20103;-79
2021/06/24 09:52:04;;;;;;;31.83;6.93;;;;;;;31.53;33.35;94265.97;5068358;28;20024;-78
2021/06/24 09:54:43;;;;;;;20.27;6.22;;;;;;;31.49;32.09;94273.53;5058542;28;20021;-78
2021/06/24 09:57:20;;;;;;;24.58;5.35;;;;;;;31.44;28.23;94266.59;5068424;28;20101;-78
2021/06/24 09:59:46;;;;;;;16.83;4.78;;;;;;;31.54;28.98;94268.25;5049897;28;20028;-77
2021/06/24 10:02:13;;;;;;;18.85;5.00;;;;;;;31.45;29.58;94261.84;5050989;28;20016;-77
2021/06/24 10:04:41;;;;;;;24.90;4.80;;;;;;;31.50;29.10;94253.81;5054832;28;20032;-77
2021/06/24 10:07:12;;;;;;;36.95;6.43;;;;;;;31.47;30.33;94257.47;5071516;28;20450;-77
2021/06/24 10:09:40;;;;;;;29.38;5.82;;;;;;;31.52;30.64;94256.16;5065750;28;20098;-82
2021/06/24 10:12:08;;;;;;;34.75;4.95;;;;;;;31.56;31.07;94238.28;5057444;28;20063;-82
2021/06/24 10:14:33;;;;;;;31.13;6.32;;;;;;;31.73;31.40;94249.22;5049084;28;20057;-82
2021/06/24 10:17:02;;;;;;;36.53;6.07;;;;;;;31.83;30.70;94250.09;5050558;28;20024;-82
2021/06/24 10:19:30;;;;;;;23.73;6.38;;;;;;;31.97;29.31;94244.91;5048838;28;20029;-82
2021/06/24 10:22:22;;;;;;;28.60;5.90;;;;;;;32.08;28.06;94244.63;5049552;28;20028;-82
2021/06/24 10:24:48;;;;;;;27.02;4.55;;;;;;;32.15;27.41;94247.13;5047778;28;20035;-82
2021/06/24 10:27:14;;;;;;;23.55;5.57;;;;;;;32.14;27.31;94234.56;5065672;28;20032;-82
2021/06/24 10:30:16;;;;;;;36.03;4.78;;;;;;;32.21;27.85;94238.31;5052625;28;20040;-82
2021/06/24 10:32:58;;;;;;;26.25;5.05;;;;;;;32.22;27.47;94243.38;5069854;28;20047;-81
2021/06/24 10:35:26;;;;;;;30.38;5.80;;;;;;;32.21;28.11;94241.06;5065844;28;20020;-81
2021/06/24 10:37:52;;;;;;;19.90;5.03;;;;;;;32.28;28.74;94235.31;5059203;28;20465;-81
2021/06/24 10:40:30;;;;;;;24.15;4.70;;;;;;;32.28;27.77;94235.31;5050826;28;20025;-81
2021/06/24 10:42:57;;;;;;;28.95;5.78;;;;;;;32.30;28.99;94228.16;5050624;28;20108;-81
2021/06/24 10:45:24;;;;;;;19.23;5.03;;;;;;;32.32;29.57;94225.72;5051940;28;20029;-81
2021/06/24 10:47:49;;;;;;;23.52;4.30;;;;;;;32.25;27.80;94219.66;5059974;28;20052;-81
2021/06/24 10:50:33;;;;;;;28.67;5.22;;;;;;;32.30;27.14;94219.88;5070486;28;20063;-81
2021/06/24 10:53:21;;;;;;;24.83;4.43;;;;;;;32.39;26.95;94217.19;5059771;28;20021;-81
2021/06/24 10:55:50;;;;;;;16.25;3.72;;;;;;;32.43;31.20;94219.06;5058328;28;20036;-81
2021/06/24 10:58:18;;;;;;;26.73;5.30;;;;;;;32.42;26.60;94225.78;5064083;28;20108;-81
2021/06/24 11:00:46;;;;;;;16.63;3.97;;;;;;;32.52;27.51;94210.84;5050966;28;20381;-81
2021/06/24 11:03:18;;;;;;;28.33;5.55;;;;;;;32.66;29.07;94218.66;5058328;28;20017;-81
2021/06/24 11:05:48;;;;;;;29.58;5.50;;;;;;;32.81;27.72;94215.41;5049846;28;20075;-82
2021/06/24 11:08:17;;;;;;;28.63;4.80;;;;;;;32.86;27.03;94214.84;5056018;28;20029;-81
2021/06/24 11:10:53;;;;;;;24.25;4.45;;;;;;;33.02;26.93;94222.16;5051519;28;20507;-81
2021/06/24 11:16:07;;;;;;;20.17;4.20;;;;;;;33.38;27.66;94211.38;5051376;28;20032;-82
2021/06/24 11:18:38;;;;;;;21.10;3.70;;;;;;;33.43;26.90;94220.28;5050236;28;20111;-82
2021/06/24 11:21:10;;;;;;;17.08;3.67;;;;;;;33.55;31.03;94216.66;5062270;28;20452;-82
2021/06/24 11:23:37;;;;;;;28.45;4.30;;;;;;;33.63;25.53;94217.19;5054776;28;20043;-82